createdAt,value
2023-02-06T00:00:03.704Z,95.32
2023-02-06T00:01:03.671Z,95.32
2023-02-06T00:02:03.716Z,95.43
2023-02-06T00:03:03.664Z,95.32
2023-02-06T00:04:03.644Z,95.32
2023-02-06T00:05:03.638Z,95.43
2023-02-06T00:06:03.663Z,95.53
2023-02-06T00:07:03.623Z,95.57
2023-02-06T00:08:03.633Z,95.68
2023-02-06T00:09:03.633Z,95.89
2023-02-06T00:10:03.586Z,95.84
2023-02-06T00:11:03.588Z,95.84
2023-02-06T00:12:03.564Z,95.95
2023-02-06T00:13:03.567Z,96.05
2023-02-06T00:14:03.545Z,95.84
2023-02-06T00:15:03.525Z,95.74
2023-02-06T00:16:03.620Z,95.74
2023-02-06T00:17:03.514Z,95.84
2023-02-06T00:18:03.492Z,95.95
2023-02-06T00:19:03.494Z,95.95
2023-02-06T00:20:03.485Z,96.05
2023-02-06T00:21:03.454Z,96.05
2023-02-06T00:22:03.446Z,95.95
2023-02-06T00:23:03.441Z,95.84
2023-02-06T00:24:03.446Z,95.74
2023-02-06T00:25:03.424Z,95.74
2023-02-06T00:26:03.414Z,95.74
2023-02-06T00:27:03.401Z,95.84
2023-02-06T00:28:03.401Z,95.74
2023-02-06T00:29:03.394Z,95.53
2023-02-06T00:30:03.368Z,95.32
2023-02-06T00:31:03.471Z,95.43
2023-02-06T00:32:03.337Z,95.43
2023-02-06T00:33:03.341Z,95.53
2023-02-06T00:34:03.338Z,95.53
2023-02-06T00:35:03.318Z,95.43
2023-02-06T00:36:03.320Z,95.32
2023-02-06T00:37:03.318Z,95.22
2023-02-06T00:38:03.291Z,95.32
2023-02-06T00:39:03.261Z,95.53
2023-02-06T00:40:03.250Z,95.53
2023-02-06T00:41:03.273Z,95.74
2023-02-06T00:42:03.271Z,95.74
2023-02-06T00:43:03.230Z,95.74
2023-02-06T00:44:03.221Z,95.74
2023-02-06T00:45:03.201Z,95.32
2023-02-06T00:46:03.264Z,95.32
2023-02-06T00:47:03.210Z,95.22
2023-02-06T00:48:03.202Z,95.32
2023-02-06T00:49:03.176Z,95.32
2023-02-06T00:50:03.168Z,95.32
2023-02-06T00:51:03.143Z,95.43
2023-02-06T00:52:03.155Z,95.43
2023-02-06T00:53:03.130Z,95.43
2023-02-06T00:54:03.120Z,95.53
2023-02-06T00:55:03.123Z,95.43
2023-02-06T00:56:03.124Z,95.22
2023-02-06T00:57:03.086Z,95.12
2023-02-06T00:58:03.087Z,95.32
2023-02-06T00:59:03.069Z,95.22
2023-02-06T01:00:03.121Z,95.12
2023-02-06T01:01:03.031Z,95.12
2023-02-06T01:02:03.115Z,95.22
2023-02-06T01:03:03.046Z,95.32
2023-02-06T01:04:03.002Z,95.43
2023-02-06T01:05:03.003Z,95.53
2023-02-06T01:06:03.000Z,95.43
2023-02-06T01:07:02.961Z,95.32
2023-02-06T01:08:04.553Z,95.43
2023-02-06T01:09:02.987Z,95.43
2023-02-06T01:10:02.950Z,95.43
2023-02-06T01:11:02.921Z,95.47
2023-02-06T01:12:02.934Z,95.68
2023-02-06T01:13:02.912Z,95.74
2023-02-06T01:14:02.936Z,95.84
2023-02-06T01:15:02.875Z,95.89
2023-02-06T01:16:02.953Z,95.89
2023-02-06T01:17:02.859Z,95.99
2023-02-06T01:18:02.841Z,96.09
2023-02-06T01:19:02.829Z,96.09
2023-02-06T01:20:02.841Z,95.99
2023-02-06T01:21:02.853Z,96.09
2023-02-06T01:22:02.808Z,96.05
2023-02-06T01:23:02.780Z,95.95
2023-02-06T01:24:02.811Z,96.09
2023-02-06T01:25:02.787Z,96.09
2023-02-06T01:26:02.768Z,95.99
2023-02-06T01:27:02.816Z,95.89
2023-02-06T01:28:02.762Z,95.89
2023-02-06T01:29:02.717Z,95.99
2023-02-06T01:30:02.727Z,95.99
2023-02-06T01:31:02.865Z,96.09
2023-02-06T01:32:02.697Z,96.30
2023-02-06T01:33:02.710Z,96.41
2023-02-06T01:34:02.689Z,96.41
2023-02-06T01:35:02.685Z,96.30
2023-02-06T01:36:02.647Z,96.30
2023-02-06T01:37:03.595Z,96.34
2023-02-06T01:38:02.634Z,96.30
2023-02-06T01:39:02.637Z,96.20
2023-02-06T01:40:02.621Z,96.20
2023-02-06T01:41:02.603Z,96.20
2023-02-06T01:42:02.580Z,95.99
2023-02-06T01:43:02.596Z,95.89
2023-02-06T01:44:02.576Z,95.89
2023-02-06T01:45:02.573Z,95.89
2023-02-06T01:46:02.548Z,96.09
2023-02-06T01:47:02.566Z,96.09
2023-02-06T01:48:02.533Z,96.20
2023-02-06T01:49:02.508Z,95.99
2023-02-06T01:50:02.507Z,95.68
2023-02-06T01:51:02.489Z,95.57
2023-02-06T01:52:02.479Z,95.68
2023-02-06T01:53:02.490Z,95.89
2023-02-06T01:54:02.452Z,95.89
2023-02-06T01:55:02.439Z,95.89
2023-02-06T01:56:02.440Z,95.78
2023-02-06T01:57:02.431Z,95.78
2023-02-06T01:58:02.420Z,95.89
2023-02-06T01:59:02.420Z,95.89
2023-02-06T02:00:02.380Z,95.99
2023-02-06T02:01:02.431Z,95.99
2023-02-06T02:02:02.480Z,95.89
2023-02-06T02:03:02.359Z,95.89
2023-02-06T02:04:02.362Z,96.03
2023-02-06T02:05:02.340Z,96.03
2023-02-06T02:06:02.328Z,96.03
2023-02-06T02:07:02.331Z,96.24
2023-02-06T02:08:02.332Z,96.45
2023-02-06T02:09:02.319Z,96.51
2023-02-06T02:10:02.289Z,96.51
2023-02-06T02:11:02.701Z,96.41
2023-02-06T02:12:02.264Z,96.41
2023-02-06T02:13:02.277Z,96.30
2023-02-06T02:14:02.237Z,95.99
2023-02-06T02:15:02.258Z,95.78
2023-02-06T02:16:02.263Z,95.78
2023-02-06T02:17:02.230Z,95.89
2023-02-06T02:18:02.217Z,95.89
2023-02-06T02:19:02.218Z,95.78
2023-02-06T02:20:02.195Z,95.68
2023-02-06T02:21:02.194Z,95.47
2023-02-06T02:22:02.190Z,95.47
2023-02-06T02:23:02.154Z,95.47
2023-02-06T02:24:02.178Z,95.62
2023-02-06T02:25:02.147Z,95.72
2023-02-06T02:26:02.107Z,95.93
2023-02-06T02:27:02.138Z,95.93
2023-02-06T02:28:02.124Z,96.09
2023-02-06T02:29:02.124Z,95.99
2023-02-06T02:30:02.097Z,95.89
2023-02-06T02:31:02.060Z,95.78
2023-02-06T02:32:02.056Z,95.78
2023-02-06T02:33:02.048Z,95.78
2023-02-06T02:34:02.047Z,95.89
2023-02-06T02:35:02.013Z,95.89
2023-02-06T02:36:02.018Z,95.93
2023-02-06T02:37:02.015Z,96.09
2023-02-06T02:38:01.979Z,95.93
2023-02-06T02:39:01.987Z,95.72
2023-02-06T02:40:01.972Z,95.83
2023-02-06T02:41:01.957Z,95.83
2023-02-06T02:42:01.948Z,96.03
2023-02-06T02:43:01.929Z,96.03
2023-02-06T02:44:01.930Z,96.09
2023-02-06T02:45:01.916Z,96.09
2023-02-06T02:46:01.928Z,95.83
2023-02-06T02:47:01.887Z,95.72
2023-02-06T02:48:01.934Z,95.83
2023-02-06T02:49:01.880Z,95.83
2023-02-06T02:50:01.869Z,96.03
2023-02-06T02:51:01.860Z,96.14
2023-02-06T02:52:01.846Z,96.14
2023-02-06T02:53:01.816Z,96.09
2023-02-06T02:54:01.804Z,95.93
2023-02-06T02:55:01.783Z,95.83
2023-02-06T02:56:01.793Z,95.83
2023-02-06T02:57:01.773Z,95.83
2023-02-06T02:58:01.763Z,95.83
2023-02-06T02:59:01.743Z,96.03
2023-02-06T03:00:01.747Z,96.24
2023-02-06T03:01:01.771Z,96.14
2023-02-06T03:02:01.828Z,96.14
2023-02-06T03:03:01.703Z,96.14
2023-02-06T03:04:01.694Z,96.24
2023-02-06T03:05:01.686Z,96.09
2023-02-06T03:06:01.680Z,96.09
2023-02-06T03:07:01.673Z,96.09
2023-02-06T03:08:01.664Z,96.20
2023-02-06T03:09:01.647Z,96.20
2023-02-06T03:10:01.631Z,96.20
2023-02-06T03:11:01.624Z,96.09
2023-02-06T03:12:01.637Z,95.78
2023-02-06T03:13:01.610Z,95.57
2023-02-06T03:14:01.609Z,95.68
2023-02-06T03:15:01.586Z,95.68
2023-02-06T03:16:01.579Z,95.68
2023-02-06T03:17:01.562Z,95.68
2023-02-06T03:18:01.551Z,95.62
2023-02-06T03:19:01.555Z,95.51
2023-02-06T03:20:01.540Z,95.51
2023-02-06T03:21:01.532Z,95.51
2023-02-06T03:22:01.528Z,95.72
2023-02-06T03:23:01.520Z,95.68
2023-02-06T03:24:01.540Z,95.68
2023-02-06T03:25:01.505Z,95.68
2023-02-06T03:26:01.501Z,95.68
2023-02-06T03:27:01.449Z,95.68
2023-02-06T03:28:01.519Z,95.37
2023-02-06T03:29:01.436Z,95.26
2023-02-06T03:30:01.472Z,95.06
2023-02-06T03:31:01.403Z,95.06
2023-02-06T03:32:01.408Z,94.95
2023-02-06T03:33:01.386Z,94.85
2023-02-06T03:34:01.375Z,94.85
2023-02-06T03:35:01.379Z,94.85
2023-02-06T03:36:01.366Z,94.85
2023-02-06T03:37:01.344Z,94.85
2023-02-06T03:38:01.332Z,95.20
2023-02-06T03:39:01.337Z,95.41
2023-02-06T03:40:01.322Z,95.41
2023-02-06T03:41:01.325Z,95.51
2023-02-06T03:42:01.309Z,95.47
2023-02-06T03:43:01.278Z,95.47
2023-02-06T03:44:02.005Z,95.57
2023-02-06T03:45:01.269Z,95.57
2023-02-06T03:46:01.307Z,95.47
2023-02-06T03:47:01.240Z,95.57
2023-02-06T03:48:01.245Z,95.57
2023-02-06T03:49:01.236Z,95.37
2023-02-06T03:50:01.238Z,95.37
2023-02-06T03:51:01.207Z,95.51
2023-02-06T03:52:01.187Z,95.41
2023-02-06T03:53:01.196Z,95.51
2023-02-06T03:54:01.188Z,95.51
2023-02-06T03:55:01.146Z,95.62
2023-02-06T03:56:01.160Z,95.62
2023-02-06T03:57:01.130Z,95.72
2023-02-06T03:58:01.152Z,95.62
2023-02-06T03:59:01.124Z,95.72
2023-02-06T04:00:01.108Z,95.83
2023-02-06T04:01:01.175Z,95.72
2023-02-06T04:02:01.185Z,95.83
2023-02-06T04:03:01.072Z,95.83
2023-02-06T04:04:01.070Z,95.83
2023-02-06T04:05:01.053Z,95.72
2023-02-06T04:06:01.067Z,95.62
2023-02-06T04:07:01.050Z,95.62
2023-02-06T04:08:01.076Z,95.41
2023-02-06T04:09:01.031Z,95.41
2023-02-06T04:10:01.027Z,95.41
2023-02-06T04:11:01.006Z,95.41
2023-02-06T04:12:00.992Z,95.51
2023-02-06T04:13:00.993Z,95.62
2023-02-06T04:14:00.967Z,95.62
2023-02-06T04:15:00.936Z,95.51
2023-02-06T04:16:00.936Z,95.51
2023-02-06T04:17:00.925Z,95.41
2023-02-06T04:18:01.643Z,95.41
2023-02-06T04:19:00.898Z,95.51
2023-02-06T04:20:00.903Z,95.51
2023-02-06T04:21:00.875Z,95.41
2023-02-06T04:22:00.902Z,95.41
2023-02-06T04:23:00.875Z,95.62
2023-02-06T04:24:00.847Z,95.72
2023-02-06T04:25:00.859Z,95.83
2023-02-06T04:26:00.841Z,95.83
2023-02-06T04:27:00.819Z,95.83
2023-02-06T04:28:00.859Z,95.72
2023-02-06T04:29:00.811Z,95.51
2023-02-06T04:30:00.797Z,95.31
2023-02-06T04:31:00.923Z,95.20
2023-02-06T04:32:00.773Z,95.31
2023-02-06T04:33:00.749Z,95.41
2023-02-06T04:34:00.742Z,95.20
2023-02-06T04:35:00.736Z,95.04
2023-02-06T04:36:00.729Z,94.94
2023-02-06T04:37:00.713Z,95.04
2023-02-06T04:38:00.706Z,95.10
2023-02-06T04:39:00.675Z,95.25
2023-02-06T04:40:00.722Z,95.31
2023-02-06T04:41:00.716Z,95.25
2023-02-06T04:42:00.666Z,95.04
2023-02-06T04:43:00.634Z,95.15
2023-02-06T04:44:00.653Z,95.20
2023-02-06T04:45:00.640Z,95.31
2023-02-06T04:46:00.683Z,95.31
2023-02-06T04:47:00.615Z,95.41
2023-02-06T04:48:00.636Z,95.31
2023-02-06T04:49:00.635Z,95.20
2023-02-06T04:50:00.590Z,95.10
2023-02-06T04:51:00.557Z,95.00
2023-02-06T04:52:00.564Z,95.00
2023-02-06T04:53:00.590Z,95.10
2023-02-06T04:54:00.574Z,95.10
2023-02-06T04:55:00.515Z,95.10
2023-02-06T04:56:00.526Z,95.10
2023-02-06T04:57:00.488Z,94.89
2023-02-06T04:58:00.477Z,94.79
2023-02-06T04:59:00.496Z,94.79
2023-02-06T05:00:00.459Z,94.58
2023-02-06T05:01:00.479Z,94.48
2023-02-06T05:02:00.463Z,94.58
2023-02-06T05:03:00.456Z,94.48
2023-02-06T05:04:00.425Z,94.48
2023-02-06T05:05:00.409Z,94.68
2023-02-06T05:06:00.414Z,94.79
2023-02-06T05:07:00.376Z,94.79
2023-02-06T05:08:00.397Z,94.79
2023-02-06T05:09:00.377Z,94.68
2023-02-06T05:10:00.368Z,94.37
2023-02-06T05:11:00.364Z,94.37
2023-02-06T05:12:00.336Z,94.48
2023-02-06T05:13:00.326Z,94.48
2023-02-06T05:14:00.334Z,94.48
2023-02-06T05:15:00.306Z,94.48
2023-02-06T05:16:00.338Z,94.58
2023-02-06T05:17:00.288Z,94.48
2023-02-06T05:18:00.264Z,94.48
2023-02-06T05:19:00.274Z,94.37
2023-02-06T05:20:00.256Z,94.48
2023-02-06T05:21:00.232Z,94.27
2023-02-06T05:22:00.214Z,94.17
2023-02-06T05:23:00.211Z,94.17
2023-02-06T05:24:00.200Z,94.17
2023-02-06T05:25:00.221Z,94.27
2023-02-06T05:26:00.182Z,94.48
2023-02-06T05:27:00.163Z,94.68
2023-02-06T05:28:00.224Z,94.79
2023-02-06T05:29:00.149Z,94.58
2023-02-06T05:30:00.146Z,94.17
2023-02-06T05:31:00.234Z,94.06
2023-02-06T05:32:00.130Z,94.06
2023-02-06T05:33:00.116Z,94.06
2023-02-06T05:34:00.139Z,94.06
2023-02-06T05:35:00.140Z,94.27
2023-02-06T05:36:00.113Z,94.27
2023-02-06T05:37:00.087Z,94.37
2023-02-06T05:38:00.120Z,94.27
2023-02-06T05:39:00.044Z,94.27
2023-02-06T05:40:00.254Z,94.17
2023-02-06T05:41:00.036Z,94.17
2023-02-06T05:42:00.005Z,94.21
2023-02-06T05:42:59.994Z,94.32
2023-02-06T05:44:00.117Z,94.42
2023-02-06T05:45:00.005Z,94.42
2023-02-06T05:46:00.032Z,94.53
2023-02-06T05:47:00.056Z,94.63
2023-02-06T05:47:59.958Z,94.84
2023-02-06T05:48:59.944Z,94.89
2023-02-06T05:49:59.927Z,94.68
2023-02-06T05:50:59.952Z,94.68
2023-02-06T05:51:59.920Z,94.68
2023-02-06T05:52:59.909Z,94.89
2023-02-06T05:53:59.879Z,94.89
2023-02-06T05:54:59.875Z,94.89
2023-02-06T05:55:59.896Z,94.68
2023-02-06T05:56:59.875Z,94.37
2023-02-06T05:57:59.850Z,94.37
2023-02-06T05:58:59.840Z,94.48
2023-02-06T05:59:59.825Z,94.58
2023-02-06T06:01:00.822Z,94.48
2023-02-06T06:01:59.855Z,94.48
2023-02-06T06:02:59.905Z,94.48
2023-02-06T06:03:59.895Z,94.48
2023-02-06T06:05:00.598Z,94.27
2023-02-06T06:05:59.892Z,93.96
2023-02-06T06:07:00.464Z,93.65
2023-02-06T06:07:59.756Z,93.33
2023-02-06T06:09:01.517Z,93.44
2023-02-06T06:09:59.755Z,93.44
2023-02-06T06:11:01.961Z,92.72
2023-02-06T06:11:59.816Z,91.99
2023-02-06T06:13:00.437Z,91.89
2023-02-06T06:13:59.679Z,92.14
2023-02-06T06:14:59.944Z,92.03
2023-02-06T06:15:59.709Z,92.14
2023-02-06T06:16:59.690Z,92.45
2023-02-06T06:17:59.645Z,92.35
2023-02-06T06:18:59.690Z,92.45
2023-02-06T06:19:59.624Z,92.86
2023-02-06T06:20:59.595Z,92.97
2023-02-06T06:21:59.605Z,93.07
2023-02-06T06:22:59.582Z,93.28
2023-02-06T06:23:59.586Z,93.18
2023-02-06T06:24:59.588Z,93.28
2023-02-06T06:25:59.565Z,93.28
2023-02-06T06:26:59.550Z,93.33
2023-02-06T06:27:59.579Z,93.23
2023-02-06T06:28:59.531Z,93.13
2023-02-06T06:29:59.539Z,93.02
2023-02-06T06:30:59.642Z,93.02
2023-02-06T06:31:59.945Z,93.13
2023-02-06T06:32:59.473Z,92.93
2023-02-06T06:33:59.465Z,92.93
2023-02-06T06:34:59.472Z,92.72
2023-02-06T06:35:59.485Z,92.82
2023-02-06T06:36:59.438Z,92.61
2023-02-06T06:37:59.446Z,92.20
2023-02-06T06:38:59.414Z,91.68
2023-02-06T06:39:59.407Z,91.78
2023-02-06T06:40:59.387Z,91.99
2023-02-06T06:41:59.388Z,91.68
2023-02-06T06:42:59.375Z,91.47
2023-02-06T06:43:59.347Z,91.68
2023-02-06T06:44:59.345Z,91.99
2023-02-06T06:45:59.433Z,91.93
2023-02-06T06:46:59.314Z,91.78
2023-02-06T06:47:59.326Z,91.93
2023-02-06T06:48:59.324Z,91.78
2023-02-06T06:49:59.307Z,91.89
2023-02-06T06:50:59.285Z,91.78
2023-02-06T06:51:59.286Z,92.20
2023-02-06T06:52:59.257Z,92.10
2023-02-06T06:53:59.254Z,91.99
2023-02-06T06:54:59.275Z,91.99
2023-02-06T06:55:59.245Z,91.89
2023-02-06T06:56:59.210Z,91.27
2023-02-06T06:57:59.215Z,91.06
2023-02-06T06:58:59.196Z,90.85
2023-02-06T06:59:59.203Z,90.89
2023-02-06T07:00:59.253Z,90.85
2023-02-06T07:01:59.166Z,91.16
2023-02-06T07:02:59.160Z,91.16
2023-02-06T07:03:59.163Z,91.37
2023-02-06T07:04:59.138Z,90.95
2023-02-06T07:05:59.137Z,90.89
2023-02-06T07:07:02.242Z,90.85
2023-02-06T07:07:59.106Z,90.64
2023-02-06T07:08:59.383Z,90.95
2023-02-06T07:09:59.077Z,91.27
2023-02-06T07:10:59.061Z,91.37
2023-02-06T07:11:59.110Z,91.58
2023-02-06T07:12:59.067Z,91.58
2023-02-06T07:13:59.082Z,91.37
2023-02-06T07:14:59.042Z,90.54
2023-02-06T07:16:00.897Z,90.33
2023-02-06T07:16:59.018Z,90.02
2023-02-06T07:17:58.998Z,89.50
2023-02-06T07:18:58.968Z,89.81
2023-02-06T07:19:58.979Z,90.23
2023-02-06T07:21:00.697Z,90.12
2023-02-06T07:21:58.988Z,89.40
2023-02-06T07:22:58.928Z,89.19
2023-02-06T07:23:58.921Z,89.40
2023-02-06T07:24:58.938Z,89.09
2023-02-06T07:25:58.910Z,89.09
2023-02-06T07:26:58.915Z,89.40
2023-02-06T07:27:58.915Z,89.09
2023-02-06T07:28:59.368Z,89.19
2023-02-06T07:29:59.163Z,89.09
2023-02-06T07:30:59.019Z,88.78
2023-02-06T07:31:58.931Z,88.98
2023-02-06T07:32:58.864Z,89.09
2023-02-06T07:33:58.837Z,89.29
2023-02-06T07:34:58.814Z,89.04
2023-02-06T07:35:58.827Z,89.25
2023-02-06T07:36:58.802Z,89.04
2023-02-06T07:37:58.761Z,88.84
2023-02-06T07:38:58.840Z,89.04
2023-02-06T07:39:58.760Z,89.04
2023-02-06T07:40:59.114Z,89.25
2023-02-06T07:41:59.457Z,89.36
2023-02-06T07:42:58.957Z,88.84
2023-02-06T07:43:58.919Z,88.42
2023-02-06T07:44:58.712Z,88.42
2023-02-06T07:45:59.093Z,88.84
2023-02-06T07:46:58.770Z,89.15
2023-02-06T07:47:58.660Z,89.15
2023-02-06T07:48:58.665Z,89.04
2023-02-06T07:49:58.638Z,88.94
2023-02-06T07:50:58.649Z,88.21
2023-02-06T07:51:58.661Z,88.11
2023-02-06T07:52:58.661Z,88.32
2023-02-06T07:53:58.610Z,88.21
2023-02-06T07:54:58.591Z,87.80
2023-02-06T07:55:58.591Z,88.11
2023-02-06T07:56:58.570Z,87.80
2023-02-06T07:57:58.580Z,88.01
2023-02-06T07:58:58.541Z,88.11
2023-02-06T07:59:58.530Z,87.59
2023-02-06T08:00:58.539Z,87.28
2023-02-06T08:01:58.522Z,87.49
2023-02-06T08:02:58.518Z,86.66
2023-02-06T08:03:58.490Z,86.55
2023-02-06T08:04:58.536Z,86.97
2023-02-06T08:05:58.499Z,86.97
2023-02-06T08:06:58.475Z,86.97
2023-02-06T08:07:58.442Z,86.97
2023-02-06T08:08:58.465Z,86.66
2023-02-06T08:09:58.441Z,86.55
2023-02-06T08:10:58.492Z,86.15
2023-02-06T08:11:58.414Z,86.45
2023-02-06T08:12:58.414Z,86.25
2023-02-06T08:13:58.421Z,86.25
2023-02-06T08:14:58.391Z,86.45
2023-02-06T08:15:58.438Z,86.76
2023-02-06T08:16:58.383Z,86.45
2023-02-06T08:17:58.342Z,86.55
2023-02-06T08:18:58.353Z,86.87
2023-02-06T08:19:58.326Z,86.87
2023-02-06T08:20:58.311Z,86.35
2023-02-06T08:21:58.306Z,86.15
2023-02-06T08:22:58.302Z,86.35
2023-02-06T08:23:58.301Z,86.55
2023-02-06T08:24:58.272Z,85.94
2023-02-06T08:25:58.274Z,85.73
2023-02-06T08:26:58.272Z,86.04
2023-02-06T08:27:58.272Z,86.25
2023-02-06T08:28:58.221Z,86.52
2023-02-06T08:29:58.225Z,87.14
2023-02-06T08:30:58.324Z,86.72
2023-02-06T08:31:58.210Z,86.62
2023-02-06T08:32:58.193Z,85.89
2023-02-06T08:33:58.187Z,85.89
2023-02-06T08:34:58.162Z,85.69
2023-02-06T08:35:58.163Z,85.27
2023-02-06T08:36:58.184Z,85.06
2023-02-06T08:37:58.164Z,84.96
2023-02-06T08:38:58.128Z,84.65
2023-02-06T08:39:58.113Z,85.17
2023-02-06T08:40:58.116Z,85.06
2023-02-06T08:45:22.942Z,84.41
2023-02-06T08:46:22.894Z,83.89
2023-02-06T08:47:22.884Z,84.09
2023-02-06T08:48:23.581Z,83.62
2023-02-06T08:49:24.830Z,83.62
2023-02-06T08:50:22.844Z,84.51
2023-02-06T08:51:22.851Z,84.41
2023-02-06T08:52:22.820Z,84.72
2023-02-06T08:53:22.810Z,84.51
2023-02-06T08:54:22.813Z,84.30
2023-02-06T08:55:37.883Z,84.30
2023-02-06T08:56:23.835Z,83.26
2023-02-06T08:57:22.890Z,82.86
2023-02-06T08:58:22.797Z,82.54
2023-02-06T08:59:22.772Z,82.86
2023-02-06T09:00:22.786Z,82.44
2023-02-06T09:01:22.755Z,82.65
2023-02-06T09:02:22.766Z,82.86
2023-02-06T09:03:22.723Z,82.34
2023-02-06T09:04:22.700Z,82.34
2023-02-06T09:05:22.691Z,82.54
2023-02-06T09:07:41.716Z,82.44
2023-02-06T09:08:42.446Z,82.86
2023-02-06T09:13:54.227Z,82.13
2023-02-06T09:14:54.158Z,82.23
2023-02-06T09:15:54.188Z,82.34
2023-02-06T09:16:54.128Z,83.16
2023-02-06T09:17:54.107Z,82.95
2023-02-06T09:18:54.326Z,82.75
2023-02-06T09:19:54.089Z,82.34
2023-02-06T09:20:54.084Z,81.92
2023-02-06T09:21:54.069Z,82.03
2023-02-06T09:22:54.097Z,82.34
2023-02-06T09:23:54.045Z,82.75
2023-02-06T09:24:54.033Z,82.54
2023-02-06T09:25:54.026Z,81.99
2023-02-06T09:26:59.817Z,81.71
2023-02-06T09:27:56.995Z,81.88
2023-02-06T09:28:54.001Z,81.78
2023-02-06T09:29:53.973Z,81.68
2023-02-06T09:30:54.120Z,81.78
2023-02-06T09:31:53.974Z,80.64
2023-02-06T09:32:53.943Z,81.26
2023-02-06T09:33:53.923Z,80.64
2023-02-06T09:34:53.927Z,80.54
2023-02-06T09:35:53.902Z,80.33
2023-02-06T09:36:53.932Z,81.37
2023-02-06T09:37:53.892Z,81.26
2023-02-06T09:38:53.871Z,82.19
2023-02-06T09:39:53.870Z,82.81
2023-02-06T09:40:53.858Z,81.37
2023-02-06T09:41:53.852Z,80.54
2023-02-06T09:42:53.851Z,81.78
2023-02-06T09:43:53.831Z,81.78
2023-02-06T09:44:53.820Z,82.29
2023-02-06T09:45:53.799Z,81.37
2023-02-06T09:46:53.810Z,81.54
2023-02-06T09:47:53.774Z,81.74
2023-02-06T09:48:53.778Z,81.23
2023-02-06T09:49:53.756Z,81.74
2023-02-06T09:50:53.750Z,81.23
2023-02-06T09:51:53.771Z,80.71
2023-02-06T09:52:53.729Z,81.64
2023-02-06T09:53:53.732Z,82.26
2023-02-06T09:54:53.722Z,81.95
2023-02-06T09:55:53.701Z,82.36
2023-02-06T09:56:53.692Z,81.54
2023-02-06T09:57:53.672Z,80.81
2023-02-06T09:58:53.675Z,81.02
2023-02-06T09:59:53.665Z,81.23
2023-02-06T10:00:53.667Z,80.60
2023-02-06T10:01:53.668Z,82.26
2023-02-06T10:02:53.641Z,82.05
2023-02-06T10:03:53.676Z,81.43
2023-02-06T10:04:53.728Z,80.71
2023-02-06T10:05:54.008Z,79.77
2023-02-06T10:06:53.911Z,79.88
2023-02-06T10:07:54.273Z,79.57
2023-02-06T10:08:53.878Z,79.47
2023-02-06T10:09:53.835Z,81.02
2023-02-06T10:10:53.900Z,79.88
2023-02-06T10:11:53.980Z,79.05
2023-02-06T10:12:53.529Z,79.77
2023-02-06T10:13:53.518Z,79.53
2023-02-06T10:14:54.013Z,79.12
2023-02-06T10:15:53.947Z,79.33
2023-02-06T10:16:53.534Z,79.74
2023-02-06T10:17:53.483Z,79.84
2023-02-06T10:18:53.479Z,79.94
2023-02-06T10:19:53.857Z,80.15
2023-02-06T10:20:53.575Z,79.12
2023-02-06T10:21:53.631Z,78.91
2023-02-06T10:22:53.580Z,77.98
2023-02-06T10:23:54.137Z,78.19
2023-02-06T10:24:53.429Z,78.70
2023-02-06T10:25:53.427Z,79.12
2023-02-06T10:26:53.400Z,79.19
2023-02-06T10:27:54.115Z,79.19
2023-02-06T10:28:53.370Z,79.60
2023-02-06T10:29:54.454Z,79.70
2023-02-06T10:30:53.394Z,80.01
2023-02-06T10:31:54.103Z,78.36
2023-02-06T10:32:53.337Z,79.08
2023-02-06T10:33:54.016Z,78.88
2023-02-06T10:34:53.335Z,78.77
2023-02-06T10:35:53.365Z,78.77
2023-02-06T10:36:53.285Z,78.67
2023-02-06T10:37:54.264Z,78.15
2023-02-06T10:38:53.269Z,78.46
2023-02-06T10:39:53.976Z,77.94
2023-02-06T10:40:53.243Z,77.74
2023-02-06T10:41:53.424Z,77.74
2023-02-06T10:42:53.225Z,77.94
2023-02-06T10:43:53.391Z,78.25
2023-02-06T10:44:54.168Z,77.84
2023-02-06T10:45:53.187Z,77.22
2023-02-06T10:46:53.226Z,77.43
2023-02-06T10:47:53.157Z,77.33
2023-02-06T10:48:54.398Z,76.60
2023-02-06T10:49:53.138Z,77.43
2023-02-06T10:50:53.174Z,77.33
2023-02-06T10:51:53.136Z,77.53
2023-02-06T10:52:53.139Z,76.91
2023-02-06T10:53:53.126Z,77.01
2023-02-06T10:54:53.104Z,77.08
2023-02-06T10:55:53.438Z,75.32
2023-02-06T10:56:53.071Z,74.43
2023-02-06T10:57:53.059Z,74.74
2023-02-06T10:58:53.051Z,74.43
2023-02-06T10:59:53.974Z,75.36
2023-02-06T11:00:53.091Z,74.53
2023-02-06T11:01:53.090Z,74.22
2023-02-06T11:03:06.174Z,75.05
2023-02-06T11:03:54.001Z,75.98
2023-02-06T11:04:52.991Z,75.57
2023-02-06T11:05:52.988Z,75.84
2023-02-06T11:06:52.960Z,75.95
2023-02-06T11:07:52.953Z,74.91
2023-02-06T11:08:52.951Z,74.19
2023-02-06T11:09:52.941Z,74.81
2023-02-06T11:10:52.923Z,73.88
2023-02-06T11:11:54.363Z,73.77
2023-02-06T11:12:52.917Z,73.88
2023-02-06T11:13:52.894Z,74.46
2023-02-06T11:14:52.890Z,73.98
2023-02-06T11:15:52.867Z,74.08
2023-02-06T11:16:52.879Z,75.01
2023-02-06T11:17:52.843Z,74.60
2023-02-06T11:18:52.839Z,73.98
2023-02-06T11:19:52.838Z,73.57
2023-02-06T11:20:55.473Z,72.95
2023-02-06T11:21:52.811Z,73.08
2023-02-06T11:22:53.742Z,73.08
2023-02-06T11:23:52.790Z,73.50
2023-02-06T11:24:52.777Z,74.29
2023-02-06T11:25:52.760Z,73.67
2023-02-06T11:26:52.760Z,73.88
2023-02-06T11:27:52.776Z,73.88
2023-02-06T11:28:52.748Z,73.16
2023-02-06T11:29:52.711Z,72.88
2023-02-06T11:30:52.757Z,74.33
2023-02-06T11:31:52.766Z,74.12
2023-02-06T11:33:03.760Z,74.43
2023-02-06T11:33:53.671Z,74.71
2023-02-06T11:34:52.665Z,75.01
2023-02-06T11:35:52.664Z,74.19
2023-02-06T11:36:52.641Z,73.47
2023-02-06T11:37:52.642Z,73.36
2023-02-06T11:38:52.622Z,73.47
2023-02-06T11:39:52.611Z,73.26
2023-02-06T11:40:52.613Z,73.26
2023-02-06T11:41:52.592Z,73.47
2023-02-06T11:42:52.588Z,73.26
2023-02-06T11:43:52.561Z,73.57
2023-02-06T11:44:52.580Z,74.22
2023-02-06T11:45:52.591Z,74.22
2023-02-06T11:46:52.539Z,74.95
2023-02-06T11:47:52.523Z,74.12
2023-02-06T11:48:53.233Z,73.91
2023-02-06T11:49:52.556Z,74.43
2023-02-06T11:50:53.212Z,74.43
2023-02-06T11:51:52.548Z,74.74
2023-02-06T11:52:53.484Z,75.15
2023-02-06T11:53:52.485Z,75.05
2023-02-06T11:54:52.453Z,74.74
2023-02-06T11:55:52.460Z,74.74
2023-02-06T11:56:52.433Z,74.43
2023-02-06T11:57:52.413Z,75.67
2023-02-06T11:58:52.403Z,74.53
2023-02-06T11:59:52.403Z,73.91
2023-02-06T12:00:52.421Z,74.43
2023-02-06T12:01:52.428Z,74.12
2023-02-06T12:02:52.397Z,74.02
2023-02-06T12:03:52.365Z,74.43
2023-02-06T12:04:52.348Z,74.95
2023-02-06T12:05:52.361Z,74.95
2023-02-06T12:06:52.359Z,75.36
2023-02-06T12:07:52.378Z,76.18
2023-02-06T12:10:10.363Z,74.95
2023-02-06T12:11:12.352Z,74.95
2023-02-06T12:12:10.327Z,75.15
2023-02-06T12:13:10.335Z,75.26
2023-02-06T12:14:10.304Z,75.26
2023-02-06T12:15:33.110Z,75.67
2023-02-06T12:16:11.340Z,75.57
2023-02-06T12:17:10.265Z,75.05
2023-02-06T12:18:10.257Z,75.05
2023-02-06T12:19:10.244Z,75.36
2023-02-06T12:20:10.266Z,74.74
2023-02-06T12:21:10.225Z,74.95
2023-02-06T12:22:10.273Z,75.98
2023-02-06T12:23:10.228Z,75.26
2023-02-06T12:24:10.199Z,76.09
2023-02-06T12:25:10.175Z,75.46
2023-02-06T12:26:10.203Z,75.36
2023-02-06T12:27:10.155Z,75.67
2023-02-06T12:28:10.195Z,75.15
2023-02-06T12:29:10.139Z,75.78
2023-02-06T12:30:10.145Z,75.57
2023-02-06T12:31:10.250Z,75.67
2023-02-06T12:32:10.104Z,75.36
2023-02-06T12:33:10.094Z,75.57
2023-02-06T12:34:10.083Z,75.84
2023-02-06T12:35:10.073Z,75.95
2023-02-06T12:36:10.060Z,75.12
2023-02-06T12:37:11.005Z,75.63
2023-02-06T12:38:10.040Z,74.81
2023-02-06T12:39:10.052Z,74.84
2023-02-06T12:40:10.034Z,74.74
2023-02-06T12:41:10.012Z,74.43
2023-02-06T12:42:09.990Z,74.22
2023-02-06T12:43:09.991Z,75.05
2023-02-06T12:44:09.987Z,74.40
2023-02-06T12:45:09.970Z,74.81
2023-02-06T12:46:10.465Z,74.50
2023-02-06T12:47:09.959Z,73.88
2023-02-06T12:48:12.159Z,74.19
2023-02-06T12:49:09.921Z,74.50
2023-02-06T12:50:09.946Z,73.16
2023-02-06T12:51:09.904Z,72.43
2023-02-06T12:52:09.900Z,72.43
2023-02-06T12:53:09.880Z,71.71
2023-02-06T12:54:09.867Z,71.19
2023-02-06T12:55:09.860Z,71.19
2023-02-06T12:56:10.540Z,70.67
2023-02-06T12:57:09.861Z,70.26
2023-02-06T12:58:10.840Z,70.57
2023-02-06T12:59:09.868Z,71.40
2023-02-06T13:00:10.799Z,71.30
2023-02-06T13:01:20.843Z,70.78
2023-02-06T13:02:11.619Z,71.50